Time,TemperatureF,DewpointF,PressureIn,WindDirection,WindDirectionDegrees,WindSpeedMPH,WindSpeedGustMPH,Humidity,HourlyPrecipIn,Conditions,Clouds,dailyrainin,SoftwareType,DateUTC
2013-04-13 00:05:00,64.1,53.0,29.77,NNW,342,0.0,1.0,67,0.00,,,0.00,weatherlink.com 1.10,2013-04-13 04:05:00,
2013-04-13 00:20:00,63.3,51.0,29.78,NNW,341,0.0,0.0,65,0.00,,,0.00,weatherlink.com 1.10,2013-04-13 04:20:00,
2013-04-13 00:35:00,62.6,50.0,29.79,NNW,341,0.0,0.0,63,0.00,,,0.00,weatherlink.com 1.10,2013-04-13 04:35:00,
2013-04-13 00:50:00,61.8,47.0,29.80,North,360,0.0,1.0,58,0.00,,,0.00,weatherlink.com 1.10,2013-04-13 04:50:00,
2013-04-13 01:05:00,61.4,49.0,29.80,NNW,341,0.0,0.0,63,0.00,,,0.00,weatherlink.com 1.10,2013-04-13 05:05:00,
2013-04-13 01:20:00,60.9,49.0,29.81,North,360,0.0,0.0,64,0.00,,,0.00,weatherlink.com 1.10,2013-04-13 05:20:00,
2013-04-13 01:35:00,60.4,47.0,29.82,NNW,341,0.0,0.0,61,0.00,,,0.00,weatherlink.com 1.10,2013-04-13 05:35:00,
2013-04-13 01:50:00,59.9,48.0,29.82,North,360,0.0,0.0,65,0.00,,,0.00,weatherlink.com 1.10,2013-04-13 05:50:00,
2013-04-13 02:05:00,59.4,49.0,29.83,NNW,342,0.0,0.0,69,0.00,,,0.00,weatherlink.com 1.10,2013-04-13 06:05:00,
2013-04-13 02:20:00,58.6,48.0,29.83,NNW,342,0.0,1.0,69,0.00,,,0.00,weatherlink.com 1.10,2013-04-13 06:20:00,
2013-04-13 02:35:00,58.0,49.0,29.84,North,360,0.0,1.0,71,0.00,,,0.00,weatherlink.com 1.10,2013-04-13 06:35:00,
2013-04-13 02:50:00,57.5,49.0,29.84,NNW,342,0.0,0.0,73,0.00,,,0.00,weatherlink.com 1.10,2013-04-13 06:50:00,
2013-04-13 03:05:00,57.0,49.0,29.84,NNW,341,0.0,0.0,74,0.00,,,0.00,weatherlink.com 1.10,2013-04-13 07:05:00,
2013-04-13 03:20:00,56.6,48.0,29.85,NNW,341,0.0,0.0,73,0.00,,,0.00,weatherlink.com 1.10,2013-04-13 07:20:00,
2013-04-13 03:51:00,55.6,47.0,29.86,NNW,341,0.0,1.0,73,0.00,,,0.00,weatherlink.com 1.10,2013-04-13 07:51:00,
2013-04-13 04:21:00,55.7,44.0,29.86,NNE,23,0.0,2.0,65,0.00,,,0.00,weatherlink.com 1.10,2013-04-13 08:21:00,
2013-04-13 04:36:00,55.9,44.0,29.88,NNW,340,0.0,2.0,64,0.00,,,0.00,weatherlink.com 1.10,2013-04-13 08:36:00,
2013-04-13 04:51:00,55.7,42.0,29.88,NNW,346,0.0,3.0,60,0.00,,,0.00,weatherlink.com 1.10,2013-04-13 08:51:00,
2013-04-13 05:21:00,55.5,43.0,29.89,NNW,342,0.0,2.0,63,0.00,,,0.00,weatherlink.com 1.10,2013-04-13 09:21:00,
2013-04-13 05:36:00,55.1,41.0,29.89,NNW,342,1.0,2.0,59,0.00,,,0.00,weatherlink.com 1.10,2013-04-13 09:36:00,
2013-04-13 07:51:00,51.2,42.0,29.96,North,360,0.0,0.0,71,0.00,,,0.00,weatherlink.com 1.10,2013-04-13 11:51:00,
2013-04-13 08:06:00,51.3,42.0,29.97,NNW,342,0.0,0.0,71,0.00,,,0.00,weatherlink.com 1.10,2013-04-13 12:06:00,
2013-04-13 09:21:00,57.6,40.0,29.98,NNE,23,0.0,2.0,53,0.00,,,0.00,weatherlink.com 1.10,2013-04-13 13:21:00,
2013-04-13 09:52:00,60.4,40.0,29.98,ENE,59,0.0,2.0,48,0.00,,,0.00,weatherlink.com 1.10,2013-04-13 13:52:00,
2013-04-13 10:06:00,61.3,42.0,29.98,SW,218,1.0,2.0,49,0.00,,,0.00,weatherlink.com 1.10,2013-04-13 14:06:00,
2013-04-13 10:37:00,63.6,42.0,29.99,SW,232,1.0,3.0,46,0.00,,,0.00,weatherlink.com 1.10,2013-04-13 14:37:00,
2013-04-13 10:51:00,64.4,41.0,29.99,North,355,0.0,2.0,43,0.00,,,0.00,weatherlink.com 1.10,2013-04-13 14:51:00,
2013-04-13 11:07:00,65.7,42.0,29.99,NNW,327,0.0,3.0,43,0.00,,,0.00,weatherlink.com 1.10,2013-04-13 15:07:00,
2013-04-13 11:22:00,67.2,46.0,29.99,WNW,287,0.0,1.0,46,0.00,,,0.00,weatherlink.com 1.10,2013-04-13 15:22:00,
2013-04-13 11:52:00,68.4,42.0,29.98,East,80,0.0,4.0,38,0.00,,,0.00,weatherlink.com 1.10,2013-04-13 15:52:00,
2013-04-13 12:07:00,69.1,43.0,29.98,North,360,0.0,4.0,39,0.00,,,0.00,weatherlink.com 1.10,2013-04-13 16:07:00,
2013-04-13 12:22:00,69.3,42.0,29.98,SSW,207,0.0,3.0,37,0.00,,,0.00,weatherlink.com 1.10,2013-04-13 16:22:00,
2013-04-13 12:37:00,68.9,42.0,29.97,West,267,1.0,4.0,38,0.00,,,0.00,weatherlink.com 1.10,2013-04-13 16:37:00,
2013-04-13 12:52:00,68.9,43.0,29.96,SE,126,1.0,4.0,40,0.00,,,0.00,weatherlink.com 1.10,2013-04-13 16:52:00,
2013-04-13 13:22:00,70.2,42.0,29.96,North,360,1.0,4.0,36,0.00,,,0.00,weatherlink.com 1.10,2013-04-13 17:22:00,
2013-04-13 13:37:00,70.9,43.0,29.96,NW,319,1.0,5.0,36,0.00,,,0.00,weatherlink.com 1.10,2013-04-13 17:37:00,
2013-04-13 14:07:00,72.1,43.0,29.96,North,360,6.0,7.0,35,0.00,,,0.00,weatherlink.com 1.10,2013-04-13 18:07:00,
2013-04-13 14:22:00,72.1,43.0,29.95,North,360,1.0,5.0,35,0.00,,,0.00,weatherlink.com 1.10,2013-04-13 18:22:00,
2013-04-13 14:37:00,72.8,44.0,29.95,North,360,2.0,3.0,35,0.00,,,0.00,weatherlink.com 1.10,2013-04-13 18:37:00,
2013-04-13 14:52:00,73.4,43.0,29.95,West,270,3.0,3.0,33,0.00,,,0.00,weatherlink.com 1.10,2013-04-13 18:52:00,
2013-04-13 15:22:00,74.3,43.0,29.94,South,178,1.0,5.0,32,0.00,,,0.00,weatherlink.com 1.10,2013-04-13 19:22:00,
2013-04-13 15:37:00,73.8,42.0,29.93,NW,311,1.0,2.0,32,0.00,,,0.00,weatherlink.com 1.10,2013-04-13 19:37:00,
2013-04-13 15:52:00,73.8,42.0,29.92,SSW,194,0.0,3.0,32,0.00,,,0.00,weatherlink.com 1.10,2013-04-13 19:52:00,
2013-04-13 16:07:00,74.2,41.0,29.92,SSW,208,1.0,3.0,30,0.00,,,0.00,weatherlink.com 1.10,2013-04-13 20:07:00,
2013-04-13 16:22:00,74.3,42.0,29.91,WNW,291,0.0,4.0,31,0.00,,,0.00,weatherlink.com 1.10,2013-04-13 20:22:00,
2013-04-13 16:37:00,74.4,40.0,29.92,South,172,4.0,6.0,29,0.00,,,0.00,weatherlink.com 1.10,2013-04-13 20:37:00,
2013-04-13 16:52:00,74.0,40.0,29.91,SSW,207,0.0,2.0,29,0.00,,,0.00,weatherlink.com 1.10,2013-04-13 20:52:00,
2013-04-13 17:07:00,73.8,40.0,29.91,SW,236,0.0,3.0,30,0.00,,,0.00,weatherlink.com 1.10,2013-04-13 21:07:00,
2013-04-13 17:22:00,73.8,42.0,29.91,WSW,241,1.0,3.0,32,0.00,,,0.00,weatherlink.com 1.10,2013-04-13 21:22:00,
2013-04-13 17:37:00,73.6,42.0,29.91,West,266,0.0,3.0,32,0.00,,,0.00,weatherlink.com 1.10,2013-04-13 21:37:00,
2013-04-13 17:52:00,73.4,40.0,29.91,SSE,150,1.0,5.0,30,0.00,,,0.00,weatherlink.com 1.10,2013-04-13 21:52:00,
2013-04-13 18:07:00,73.0,43.0,29.91,SSE,150,1.0,1.0,34,0.00,,,0.00,weatherlink.com 1.10,2013-04-13 22:07:00,
2013-04-13 18:22:00,72.6,42.0,29.92,SSE,150,0.0,2.0,33,0.00,,,0.00,weatherlink.com 1.10,2013-04-13 22:22:00,
2013-04-13 18:37:00,72.2,42.0,29.92,SSE,150,0.0,2.0,34,0.00,,,0.00,weatherlink.com 1.10,2013-04-13 22:37:00,
2013-04-13 18:52:00,71.5,41.0,29.92,SSE,151,0.0,1.0,33,0.00,,,0.00,weatherlink.com 1.10,2013-04-13 22:52:00,
2013-04-13 19:07:00,70.9,42.0,29.92,SSE,151,0.0,1.0,35,0.00,,,0.00,weatherlink.com 1.10,2013-04-13 23:07:00,
2013-04-13 19:22:00,70.1,42.0,29.92,SSE,151,0.0,0.0,36,0.00,,,0.00,weatherlink.com 1.10,2013-04-13 23:22:00,
2013-04-13 19:37:00,69.3,42.0,29.93,SSE,152,0.0,0.0,37,0.00,,,0.00,weatherlink.com 1.10,2013-04-13 23:37:00,
2013-04-13 20:07:00,67.2,44.0,29.94,SE,138,0.0,0.0,43,0.00,,,0.00,weatherlink.com 1.10,2013-04-14 00:07:00,
2013-04-13 20:22:00,66.1,45.0,29.94,SE,138,0.0,0.0,47,0.00,,,0.00,weatherlink.com 1.10,2013-04-14 00:22:00,
2013-04-13 20:37:00,65.0,46.0,29.95,SE,138,0.0,0.0,50,0.00,,,0.00,weatherlink.com 1.10,2013-04-14 00:37:00,
2013-04-13 20:52:00,64.0,45.0,29.95,SE,138,0.0,0.0,51,0.00,,,0.00,weatherlink.com 1.10,2013-04-14 00:52:00,
2013-04-13 21:07:00,63.1,45.0,29.96,SE,138,0.0,1.0,52,0.00,,,0.00,weatherlink.com 1.10,2013-04-14 01:07:00,
2013-04-13 21:22:00,62.2,46.0,29.96,SE,138,0.0,0.0,56,0.00,,,0.00,weatherlink.com 1.10,2013-04-14 01:22:00,
2013-04-13 21:37:00,61.4,46.0,29.97,SE,139,0.0,0.0,57,0.00,,,0.00,weatherlink.com 1.10,2013-04-14 01:37:00,
2013-04-13 21:52:00,60.7,45.0,29.98,SE,139,0.0,1.0,57,0.00,,,0.00,weatherlink.com 1.10,2013-04-14 01:52:00,
2013-04-13 22:07:00,60.0,45.0,29.99,SE,138,0.0,0.0,59,0.00,,,0.00,weatherlink.com 1.10,2013-04-14 02:07:00,
2013-04-13 22:22:00,59.5,46.0,29.99,SE,138,0.0,0.0,61,0.00,,,0.00,weatherlink.com 1.10,2013-04-14 02:22:00,
2013-04-13 22:37:00,59.2,46.0,29.99,SE,139,0.0,0.0,61,0.00,,,0.00,weatherlink.com 1.10,2013-04-14 02:37:00,
2013-04-13 22:52:00,59.0,44.0,30.00,SE,139,0.0,0.0,58,0.00,,,0.00,weatherlink.com 1.10,2013-04-14 02:52:00,
2013-04-13 23:07:00,59.2,44.0,30.01,SE,138,0.0,0.0,58,0.00,,,0.00,weatherlink.com 1.10,2013-04-14 03:07:00,
2013-04-13 23:22:00,59.2,46.0,30.01,SE,138,0.0,0.0,61,0.00,,,0.00,weatherlink.com 1.10,2013-04-14 03:22:00,
2013-04-13 23:37:00,58.9,46.0,30.02,SE,138,0.0,0.0,63,0.00,,,0.00,weatherlink.com 1.10,2013-04-14 03:37:00,
2013-04-13 23:52:00,58.4,45.0,30.02,SE,138,0.0,0.0,62,0.00,,,0.00,weatherlink.com 1.10,2013-04-14 03:52:00,